createdAt,value
2017-09-30T00:00:03.269Z,7.60
2017-09-30T00:00:07.559Z,7.60
2017-09-30T00:00:11.803Z,7.65
2017-09-30T00:00:16.056Z,7.50
2017-09-30T00:00:21.092Z,7.50
2017-09-30T00:00:25.363Z,7.60
2017-09-30T00:00:29.598Z,7.50
2017-09-30T00:00:33.857Z,7.50
2017-09-30T00:00:38.871Z,7.50
2017-09-30T00:00:43.097Z,7.43
2017-09-30T00:00:47.341Z,7.30
2017-09-30T00:00:51.595Z,7.35
2017-09-30T00:00:56.739Z,7.40
2017-09-30T00:01:00.987Z,7.45
2017-09-30T00:01:05.253Z,7.40
2017-09-30T00:01:09.535Z,7.30
2017-09-30T00:01:14.516Z,7.40
2017-09-30T00:01:18.753Z,7.30
2017-09-30T00:01:22.981Z,7.30
2017-09-30T00:01:27.259Z,7.20
2017-09-30T00:01:31.486Z,7.30
2017-09-30T00:01:35.751Z,7.35
2017-09-30T00:01:40.027Z,7.53
2017-09-30T00:01:45.063Z,7.60
2017-09-30T00:01:49.654Z,7.60
2017-09-30T00:01:54.668Z,7.60
2017-09-30T00:01:59.702Z,7.47
2017-09-30T00:02:04.705Z,7.40
2017-09-30T00:02:09.761Z,7.60
2017-09-30T00:02:14.011Z,7.60
2017-09-30T00:02:18.259Z,7.50
2017-09-30T00:02:22.518Z,7.40
2017-09-30T00:02:27.534Z,7.30
2017-09-30T00:02:31.775Z,7.30
2017-09-30T00:02:36.054Z,7.25
2017-09-30T00:02:40.292Z,7.10
2017-09-30T00:02:45.055Z,7.20
2017-09-30T00:02:50.049Z,7.15
2017-09-30T00:02:54.298Z,7.07
2017-09-30T00:02:58.524Z,7.10
2017-09-30T00:03:02.773Z,7.10
2017-09-30T00:03:07.781Z,6.95
2017-09-30T00:03:12.808Z,6.90
2017-09-30T00:03:17.797Z,7.17
2017-09-30T00:03:22.051Z,7.40
2017-09-30T00:03:26.272Z,7.50
2017-09-30T00:03:30.509Z,7.50
2017-09-30T00:03:34.770Z,7.55
2017-09-30T00:03:39.009Z,7.60
2017-09-30T00:03:43.230Z,7.60
2017-09-30T00:03:47.488Z,7.57
2017-09-30T00:03:51.756Z,7.50
2017-09-30T00:03:55.967Z,7.50
2017-09-30T00:04:00.197Z,7.55
2017-09-30T00:04:04.420Z,7.60
2017-09-30T00:04:08.695Z,7.70
2017-09-30T00:04:12.970Z,7.65
2017-09-30T00:04:17.215Z,7.40
2017-09-30T00:04:21.479Z,7.33
2017-09-30T00:04:26.508Z,7.40
2017-09-30T00:04:30.748Z,7.27
2017-09-30T00:04:35.740Z,7.20
2017-09-30T00:04:39.978Z,7.17
2017-09-30T00:04:44.230Z,7.20
2017-09-30T00:04:48.480Z,7.30
2017-09-30T00:04:52.712Z,7.40
2017-09-30T00:04:56.943Z,7.50
2017-09-30T00:05:01.301Z,7.53
2017-09-30T00:05:05.573Z,7.60
2017-09-30T00:05:09.827Z,7.50
2017-09-30T00:05:14.074Z,7.60
2017-09-30T00:05:19.052Z,7.60
2017-09-30T00:05:23.314Z,7.50
2017-09-30T00:05:27.546Z,7.50
2017-09-30T00:05:31.846Z,7.60
2017-09-30T00:05:36.087Z,7.60
2017-09-30T00:05:40.345Z,7.60
2017-09-30T00:05:44.597Z,7.60
2017-09-30T00:05:48.925Z,7.75
2017-09-30T00:05:53.948Z,7.73
2017-09-30T00:05:58.195Z,7.60
2017-09-30T00:06:03.210Z,7.60
2017-09-30T00:06:08.235Z,7.53
2017-09-30T00:06:13.261Z,7.50
2017-09-30T00:06:18.282Z,7.60
2017-09-30T00:06:23.292Z,7.70
2017-09-30T00:06:28.295Z,7.70
2017-09-30T00:06:32.547Z,7.77
2017-09-30T00:06:36.761Z,7.85
2017-09-30T00:06:41.007Z,7.93
2017-09-30T00:06:46.031Z,8.10
2017-09-30T00:06:50.275Z,8.10
2017-09-30T00:06:54.525Z,8.10
2017-09-30T00:06:59.541Z,8.17
2017-09-30T00:07:04.539Z,8.17
2017-09-30T00:07:08.772Z,8.33
2017-09-30T00:07:13.026Z,8.30
2017-09-30T00:07:17.277Z,8.25
2017-09-30T00:07:22.271Z,8.20
2017-09-30T00:07:27.286Z,8.20
2017-09-30T00:07:31.531Z,8.37
2017-09-30T00:07:35.790Z,8.50
2017-09-30T00:07:40.015Z,8.45
2017-09-30T00:07:44.250Z,8.40
2017-09-30T00:07:48.491Z,8.25
2017-09-30T00:07:52.735Z,8.07
2017-09-30T00:07:56.963Z,8.00
2017-09-30T00:08:01.336Z,8.10
2017-09-30T00:08:06.159Z,8.10
2017-09-30T00:08:11.792Z,8.00
2017-09-30T00:08:17.103Z,8.07
2017-09-30T00:08:21.339Z,8.07
2017-09-30T00:08:25.591Z,8.23
2017-09-30T00:08:29.840Z,8.25
2017-09-30T00:08:34.065Z,8.10
2017-09-30T00:08:39.075Z,8.00
2017-09-30T00:08:44.086Z,8.00
2017-09-30T00:08:48.863Z,7.90
2017-09-30T00:08:53.102Z,8.23
2017-09-30T00:08:57.365Z,8.30
2017-09-30T00:09:01.625Z,8.27
2017-09-30T00:09:06.641Z,8.40
2017-09-30T00:09:11.651Z,8.33
2017-09-30T00:09:16.649Z,8.30
2017-09-30T00:09:20.881Z,8.27
2017-09-30T00:09:25.109Z,8.10
2017-09-30T00:09:29.345Z,7.93
2017-09-30T00:09:33.581Z,7.80
2017-09-30T00:09:37.841Z,7.80
2017-09-30T00:09:42.053Z,7.90
2017-09-30T00:09:47.097Z,7.90
2017-09-30T00:09:52.106Z,7.77
2017-09-30T00:09:57.127Z,7.60
2017-09-30T00:10:01.404Z,7.47
2017-09-30T00:10:05.654Z,7.40
2017-09-30T00:10:09.899Z,7.50
2017-09-30T00:10:14.138Z,7.50
2017-09-30T00:10:18.376Z,7.50
2017-09-30T00:10:22.616Z,7.60
2017-09-30T00:10:26.841Z,7.60
2017-09-30T00:10:31.068Z,7.70
2017-09-30T00:10:35.319Z,7.70
2017-09-30T00:10:40.318Z,7.70
2017-09-30T00:10:44.549Z,7.77
2017-09-30T00:10:48.809Z,7.80
2017-09-30T00:10:53.042Z,7.60
2017-09-30T00:10:58.066Z,7.60
2017-09-30T00:11:03.070Z,7.53
2017-09-30T00:11:08.084Z,7.53
2017-09-30T00:11:13.091Z,7.37
2017-09-30T00:11:17.347Z,7.27
2017-09-30T00:11:21.607Z,7.30
2017-09-30T00:11:26.607Z,7.27
2017-09-30T00:11:30.853Z,7.33
2017-09-30T00:11:35.107Z,7.40
2017-09-30T00:11:39.350Z,7.40
2017-09-30T00:11:43.586Z,7.30
2017-09-30T00:11:47.817Z,7.33
2017-09-30T00:11:52.092Z,7.60
2017-09-30T00:11:56.297Z,7.70
2017-09-30T00:12:00.521Z,7.80
2017-09-30T00:12:05.531Z,7.90
2017-09-30T00:12:09.813Z,8.03
2017-09-30T00:12:14.057Z,8.20
2017-09-30T00:12:19.074Z,8.10
2017-09-30T00:12:24.077Z,8.17
2017-09-30T00:12:29.090Z,8.10
2017-09-30T00:12:33.349Z,8.00
2017-09-30T00:12:37.601Z,8.10
2017-09-30T00:12:42.614Z,8.10
2017-09-30T00:12:47.615Z,8.10
2017-09-30T00:12:51.865Z,8.00
2017-09-30T00:12:56.091Z,8.10
2017-09-30T00:13:00.340Z,8.00
2017-09-30T00:13:05.371Z,7.83
2017-09-30T00:13:09.627Z,7.73
2017-09-30T00:13:13.878Z,7.70
2017-09-30T00:13:18.136Z,7.60
2017-09-30T00:13:22.371Z,7.50
2017-09-30T00:13:26.631Z,7.57
2017-09-30T00:13:30.887Z,7.70
2017-09-30T00:13:35.117Z,7.70
2017-09-30T00:13:39.349Z,7.70
2017-09-30T00:13:44.364Z,7.63
2017-09-30T00:13:49.376Z,7.60
2017-09-30T00:13:53.608Z,7.60
2017-09-30T00:13:57.846Z,7.60
2017-09-30T00:14:02.087Z,7.70
2017-09-30T00:14:07.098Z,7.60
2017-09-30T00:14:12.150Z,7.60
2017-09-30T00:14:16.401Z,7.60
2017-09-30T00:14:20.629Z,7.60
2017-09-30T00:14:24.878Z,7.60
2017-09-30T00:14:29.135Z,7.45
2017-09-30T00:14:34.121Z,7.40
2017-09-30T00:14:38.368Z,7.50
2017-09-30T00:14:42.592Z,7.50
2017-09-30T00:14:46.825Z,7.60
2017-09-30T00:14:51.071Z,7.65
2017-09-30T00:14:55.315Z,7.50
2017-09-30T00:14:59.551Z,7.50
2017-09-30T00:15:04.542Z,7.60
2017-09-30T00:15:08.802Z,7.70
2017-09-30T00:15:13.067Z,7.70
2017-09-30T00:15:17.326Z,7.83
2017-09-30T00:15:21.589Z,8.00
2017-09-30T00:15:25.807Z,8.00
2017-09-30T00:15:30.076Z,7.90
2017-09-30T00:15:35.082Z,8.00
2017-09-30T00:15:40.081Z,8.00
2017-09-30T00:15:45.121Z,8.00
2017-09-30T00:15:50.136Z,7.93
2017-09-30T00:15:55.146Z,8.03
2017-09-30T00:16:00.169Z,8.10
2017-09-30T00:16:05.182Z,7.97
2017-09-30T00:16:09.415Z,7.93
2017-09-30T00:16:13.651Z,8.00
2017-09-30T00:16:17.900Z,7.90
2017-09-30T00:16:22.156Z,8.00
2017-09-30T00:16:26.415Z,8.00
2017-09-30T00:16:30.638Z,8.00
2017-09-30T00:16:34.881Z,7.83
2017-09-30T00:16:39.923Z,7.80
2017-09-30T00:16:44.155Z,7.97
2017-09-30T00:16:48.409Z,8.00
2017-09-30T00:16:52.694Z,8.00
2017-09-30T00:16:56.938Z,7.90
2017-09-30T00:17:01.184Z,7.80
2017-09-30T00:17:05.437Z,7.80
2017-09-30T00:17:09.665Z,7.70
2017-09-30T00:17:13.932Z,7.70
2017-09-30T00:17:18.169Z,7.70
2017-09-30T00:17:22.388Z,7.65
2017-09-30T00:17:27.384Z,7.70
2017-09-30T00:17:31.619Z,7.70
2017-09-30T00:17:36.647Z,7.80
2017-09-30T00:17:41.644Z,7.83
2017-09-30T00:17:46.652Z,7.60
2017-09-30T00:17:51.708Z,7.53
2017-09-30T00:17:55.974Z,7.60
2017-09-30T00:18:00.222Z,7.70
2017-09-30T00:18:04.471Z,7.77
2017-09-30T00:18:08.723Z,7.90
2017-09-30T00:18:12.962Z,7.80
2017-09-30T00:18:17.200Z,7.90
2017-09-30T00:18:21.447Z,8.00
2017-09-30T00:18:25.685Z,7.95
2017-09-30T00:18:30.685Z,8.00
2017-09-30T00:18:34.909Z,8.03
2017-09-30T00:18:39.931Z,7.95
2017-09-30T00:18:44.922Z,8.00
2017-09-30T00:18:49.274Z,8.17
2017-09-30T00:18:54.265Z,8.20
2017-09-30T00:18:58.536Z,8.03
2017-09-30T00:19:02.778Z,8.00
2017-09-30T00:19:07.771Z,8.00
2017-09-30T00:19:12.775Z,8.20
2017-09-30T00:19:17.179Z,8.00
2017-09-30T00:19:21.432Z,7.90
2017-09-30T00:19:25.678Z,8.00
2017-09-30T00:19:29.918Z,8.00
2017-09-30T00:19:34.203Z,7.93
2017-09-30T00:19:39.224Z,8.00
2017-09-30T00:19:44.243Z,7.90
2017-09-30T00:19:49.250Z,7.70
2017-09-30T00:19:54.269Z,7.80
2017-09-30T00:19:59.273Z,7.90
2017-09-30T00:20:03.510Z,8.00
2017-09-30T00:20:07.750Z,7.75
2017-09-30T00:20:11.999Z,7.70
2017-09-30T00:20:17.007Z,7.90
2017-09-30T00:20:21.256Z,7.97
2017-09-30T00:20:25.506Z,7.90
2017-09-30T00:20:29.869Z,7.90
2017-09-30T00:20:34.130Z,8.00
2017-09-30T00:20:38.379Z,8.20
2017-09-30T00:20:42.604Z,8.30
2017-09-30T00:20:47.614Z,8.40
2017-09-30T00:20:51.857Z,8.33
2017-09-30T00:20:56.089Z,8.30
2017-09-30T00:21:00.375Z,8.30
2017-09-30T00:21:04.609Z,8.30
2017-09-30T00:21:08.869Z,8.30
2017-09-30T00:21:13.103Z,8.25
2017-09-30T00:21:17.371Z,8.15
2017-09-30T00:21:21.622Z,8.10
2017-09-30T00:21:25.864Z,8.10
2017-09-30T00:21:30.104Z,7.90
2017-09-30T00:21:34.335Z,7.75
2017-09-30T00:21:39.359Z,7.60
2017-09-30T00:21:44.354Z,7.60
2017-09-30T00:21:48.606Z,7.50
2017-09-30T00:21:52.855Z,7.70
2017-09-30T00:21:57.880Z,7.70
2017-09-30T00:22:02.929Z,7.80
2017-09-30T00:22:07.928Z,7.93
2017-09-30T00:22:12.947Z,8.10
2017-09-30T00:22:17.961Z,8.17
2017-09-30T00:22:22.199Z,8.00
2017-09-30T00:22:26.420Z,8.10
2017-09-30T00:22:30.661Z,8.23
2017-09-30T00:22:35.671Z,8.35
2017-09-30T00:22:40.673Z,8.47
2017-09-30T00:22:44.900Z,8.60
2017-09-30T00:22:49.168Z,8.45
2017-09-30T00:22:53.423Z,8.40
2017-09-30T00:22:57.675Z,8.50
2017-09-30T00:23:01.983Z,8.40
2017-09-30T00:23:06.983Z,8.25
2017-09-30T00:23:11.225Z,8.13
2017-09-30T00:23:15.468Z,8.00
2017-09-30T00:23:19.783Z,8.00
2017-09-30T00:23:24.037Z,7.95
2017-09-30T00:23:28.294Z,7.80
2017-09-30T00:23:32.564Z,7.90
2017-09-30T00:23:36.818Z,7.90
2017-09-30T00:23:41.103Z,7.65
2017-09-30T00:23:45.368Z,7.70
2017-09-30T00:23:49.589Z,7.70
2017-09-30T00:23:53.830Z,7.80
2017-09-30T00:23:58.107Z,7.70
2017-09-30T00:24:03.128Z,7.70
2017-09-30T00:24:08.156Z,7.83
2017-09-30T00:24:13.177Z,7.93
2017-09-30T00:24:18.179Z,7.90
2017-09-30T00:24:23.184Z,8.03
2017-09-30T00:24:27.431Z,8.10
2017-09-30T00:24:31.679Z,8.20
2017-09-30T00:24:36.718Z,8.20
2017-09-30T00:24:40.960Z,8.20
2017-09-30T00:24:45.198Z,8.20
2017-09-30T00:24:49.513Z,8.15
2017-09-30T00:24:53.763Z,8.10
2017-09-30T00:24:57.985Z,8.20
2017-09-30T00:25:02.243Z,8.25
2017-09-30T00:25:06.480Z,8.20
2017-09-30T00:25:10.787Z,8.10
2017-09-30T00:25:15.055Z,8.10
2017-09-30T00:25:19.300Z,8.00
2017-09-30T00:25:23.527Z,8.10
2017-09-30T00:25:28.543Z,8.20
2017-09-30T00:25:33.546Z,8.13
2017-09-30T00:25:37.835Z,8.13
2017-09-30T00:25:42.080Z,8.30
2017-09-30T00:25:46.333Z,8.30
2017-09-30T00:25:50.568Z,8.15
2017-09-30T00:25:55.578Z,8.20
2017-09-30T00:26:00.590Z,8.17
2017-09-30T00:26:05.623Z,8.20
2017-09-30T00:26:09.903Z,8.20
2017-09-30T00:26:14.129Z,8.30
2017-09-30T00:26:18.405Z,8.40
2017-09-30T00:26:22.654Z,8.25
2017-09-30T00:26:26.904Z,8.20
2017-09-30T00:26:31.138Z,8.10
2017-09-30T00:26:35.384Z,8.05
2017-09-30T00:26:39.628Z,7.97
2017-09-30T00:26:43.875Z,7.90
2017-09-30T00:26:48.112Z,8.00
2017-09-30T00:26:52.347Z,8.05
2017-09-30T00:26:56.569Z,7.90
2017-09-30T00:27:00.810Z,7.65
2017-09-30T00:27:05.999Z,7.50
2017-09-30T00:27:10.222Z,7.50
2017-09-30T00:27:16.249Z,7.50
2017-09-30T00:27:20.494Z,7.50
2017-09-30T00:27:24.737Z,7.50
2017-09-30T00:27:28.973Z,7.60
2017-09-30T00:27:33.979Z,7.50
2017-09-30T00:27:38.212Z,7.40
2017-09-30T00:27:42.475Z,7.40
2017-09-30T00:27:46.728Z,7.40
2017-09-30T00:27:51.006Z,7.40
2017-09-30T00:27:56.019Z,7.40
2017-09-30T00:28:01.010Z,7.43
2017-09-30T00:28:05.312Z,7.77
2017-09-30T00:28:09.569Z,7.60
2017-09-30T00:28:13.798Z,7.50
2017-09-30T00:28:18.045Z,7.60
2017-09-30T00:28:22.316Z,7.50
2017-09-30T00:28:26.590Z,7.45
2017-09-30T00:28:30.856Z,7.50
2017-09-30T00:28:35.086Z,7.65
2017-09-30T00:28:39.353Z,7.77
2017-09-30T00:28:43.582Z,7.90
2017-09-30T00:28:47.841Z,7.85
2017-09-30T00:28:52.092Z,7.90
2017-09-30T00:28:56.351Z,8.00
2017-09-30T00:29:00.599Z,8.00
2017-09-30T00:29:04.840Z,8.00
2017-09-30T00:29:09.837Z,8.17
2017-09-30T00:29:14.086Z,8.30
2017-09-30T00:29:18.316Z,8.20
2017-09-30T00:29:22.570Z,8.20
2017-09-30T00:29:26.794Z,8.30
2017-09-30T00:29:31.040Z,8.30
2017-09-30T00:29:36.064Z,8.15
2017-09-30T00:29:41.074Z,7.93
2017-09-30T00:29:46.230Z,7.80
2017-09-30T00:29:50.482Z,7.80
2017-09-30T00:29:54.734Z,7.80
2017-09-30T00:29:58.994Z,7.90
2017-09-30T00:30:03.285Z,7.90
2017-09-30T00:30:07.552Z,7.80
2017-09-30T00:30:11.853Z,7.90
2017-09-30T00:30:16.113Z,7.93
2017-09-30T00:30:20.404Z,8.00
2017-09-30T00:30:24.638Z,8.00
2017-09-30T00:30:28.899Z,8.10
2017-09-30T00:30:33.152Z,8.10
2017-09-30T00:30:37.382Z,8.20
2017-09-30T00:30:41.620Z,8.30
2017-09-30T00:30:45.903Z,8.37
2017-09-30T00:30:50.148Z,8.40
2017-09-30T00:30:54.377Z,8.40
2017-09-30T00:30:58.645Z,8.30
2017-09-30T00:31:02.890Z,8.10
2017-09-30T00:31:07.167Z,8.10
2017-09-30T00:31:11.452Z,7.90
2017-09-30T00:31:15.695Z,7.90
2017-09-30T00:31:20.743Z,8.00
2017-09-30T00:31:24.994Z,8.00
2017-09-30T00:31:29.242Z,8.00
2017-09-30T00:31:33.515Z,7.80
2017-09-30T00:31:37.806Z,7.70
2017-09-30T00:31:42.073Z,7.70
2017-09-30T00:31:46.448Z,7.70
2017-09-30T00:31:50.906Z,7.70
2017-09-30T00:31:55.175Z,7.70
2017-09-30T00:31:59.448Z,7.70
2017-09-30T00:32:03.701Z,7.70
2017-09-30T00:32:07.929Z,7.70
2017-09-30T00:32:12.970Z,7.95
2017-09-30T00:32:17.966Z,7.83
2017-09-30T00:32:22.992Z,7.80
2017-09-30T00:32:27.222Z,7.77
2017-09-30T00:32:31.467Z,7.87
2017-09-30T00:32:35.727Z,8.10
2017-09-30T00:32:39.965Z,8.10
2017-09-30T00:32:44.214Z,8.00
2017-09-30T00:32:48.484Z,7.83
2017-09-30T00:32:52.781Z,7.80
2017-09-30T00:32:57.810Z,7.90
2017-09-30T00:33:02.049Z,7.90
2017-09-30T00:33:06.294Z,7.97
2017-09-30T00:33:10.547Z,7.95
2017-09-30T00:33:14.787Z,7.80
2017-09-30T00:33:19.021Z,7.65
2017-09-30T00:33:23.291Z,7.67
2017-09-30T00:33:27.537Z,7.70
2017-09-30T00:33:31.769Z,7.75
2017-09-30T00:33:36.014Z,7.60
2017-09-30T00:33:41.038Z,7.70
2017-09-30T00:33:46.195Z,7.83
2017-09-30T00:33:50.436Z,8.00
2017-09-30T00:33:54.670Z,8.00
2017-09-30T00:33:58.932Z,7.90
2017-09-30T00:34:03.208Z,7.93
2017-09-30T00:34:07.494Z,8.05
2017-09-30T00:34:11.741Z,8.05
2017-09-30T00:34:16.745Z,8.13
2017-09-30T00:34:21.060Z,8.20
2017-09-30T00:34:25.295Z,8.20
2017-09-30T00:34:29.514Z,8.10
2017-09-30T00:34:33.741Z,8.00
2017-09-30T00:34:38.015Z,8.10
2017-09-30T00:34:42.246Z,8.15
2017-09-30T00:34:46.479Z,8.15
2017-09-30T00:34:50.713Z,8.00
2017-09-30T00:34:54.978Z,8.00
2017-09-30T00:35:00.009Z,8.00
2017-09-30T00:35:04.999Z,8.00
2017-09-30T00:35:09.225Z,7.93
2017-09-30T00:35:13.486Z,8.05
2017-09-30T00:35:17.728Z,8.05
2017-09-30T00:35:22.040Z,8.00
2017-09-30T00:35:26.277Z,8.00
2017-09-30T00:35:30.537Z,8.00
2017-09-30T00:35:34.804Z,8.10
2017-09-30T00:35:39.813Z,8.00
2017-09-30T00:35:44.061Z,7.70
2017-09-30T00:35:48.282Z,7.70
2017-09-30T00:35:52.530Z,7.70
2017-09-30T00:35:57.554Z,7.67
2017-09-30T00:36:02.596Z,7.70
2017-09-30T00:36:06.878Z,7.70
2017-09-30T00:36:11.117Z,7.65
2017-09-30T00:36:15.355Z,7.60
2017-09-30T00:36:20.413Z,7.60
2017-09-30T00:36:24.674Z,7.63
2017-09-30T00:36:29.682Z,7.70
2017-09-30T00:36:33.963Z,7.70
2017-09-30T00:36:38.195Z,7.75
2017-09-30T00:36:43.250Z,7.90
2017-09-30T00:36:47.485Z,7.90
2017-09-30T00:36:51.753Z,7.95
2017-09-30T00:36:55.982Z,8.15
2017-09-30T00:37:00.245Z,7.95
2017-09-30T00:37:05.221Z,7.87
2017-09-30T00:37:09.471Z,7.80
2017-09-30T00:37:13.700Z,7.70
2017-09-30T00:37:17.960Z,7.75
2017-09-30T00:37:22.216Z,7.75
2017-09-30T00:37:26.469Z,7.60
2017-09-30T00:37:30.708Z,7.50
2017-09-30T00:37:34.948Z,7.40
2017-09-30T00:37:39.211Z,7.30
2017-09-30T00:37:43.460Z,7.20
2017-09-30T00:37:47.828Z,7.20
2017-09-30T00:37:52.070Z,7.15
2017-09-30T00:37:56.354Z,7.00
2017-09-30T00:38:00.594Z,7.20
2017-09-30T00:38:04.866Z,7.30
2017-09-30T00:38:09.094Z,7.30
2017-09-30T00:38:13.363Z,7.43
2017-09-30T00:38:17.594Z,7.40
2017-09-30T00:38:21.826Z,7.35
2017-09-30T00:38:26.092Z,7.40
2017-09-30T00:38:30.338Z,7.40
2017-09-30T00:38:34.594Z,7.50
2017-09-30T00:38:38.834Z,7.65
2017-09-30T00:38:43.835Z,7.70
2017-09-30T00:38:48.203Z,7.70
2017-09-30T00:38:52.421Z,7.70
2017-09-30T00:38:56.672Z,7.60
2017-09-30T00:39:00.949Z,7.55
2017-09-30T00:39:05.987Z,7.57
2017-09-30T00:39:11.012Z,7.70
2017-09-30T00:39:16.026Z,7.70
2017-09-30T00:39:20.276Z,7.70
2017-09-30T00:39:24.528Z,7.70
2017-09-30T00:39:28.801Z,7.80
2017-09-30T00:39:33.040Z,7.77
2017-09-30T00:39:37.383Z,7.65
2017-09-30T00:39:41.631Z,7.55
2017-09-30T00:39:46.086Z,7.50
2017-09-30T00:39:50.314Z,7.55
2017-09-30T00:39:54.556Z,7.60
2017-09-30T00:40:10.823Z,7.30
2017-09-30T00:40:15.822Z,7.20
2017-09-30T00:40:20.834Z,7.15
2017-09-30T00:40:25.108Z,7.30
2017-09-30T00:40:29.346Z,7.20
2017-09-30T00:40:34.383Z,7.25
2017-09-30T00:40:38.642Z,7.53
2017-09-30T00:40:42.916Z,7.77
2017-09-30T00:40:47.443Z,7.80
2017-09-30T00:40:51.728Z,7.90
2017-09-30T00:40:55.966Z,7.95
2017-09-30T00:41:00.982Z,8.00
2017-09-30T00:41:05.983Z,8.00
2017-09-30T00:41:10.233Z,8.00
2017-09-30T00:41:14.475Z,8.00
2017-09-30T00:41:18.739Z,8.10
2017-09-30T00:41:23.008Z,8.20
2017-09-30T00:41:28.021Z,8.30
2017-09-30T00:41:33.032Z,8.27
2017-09-30T00:41:37.271Z,8.13
2017-09-30T00:41:41.528Z,7.90
2017-09-30T00:41:46.625Z,7.80
2017-09-30T00:41:50.858Z,7.67
2017-09-30T00:41:55.882Z,7.60
2017-09-30T00:42:00.187Z,7.50
2017-09-30T00:42:04.453Z,7.30
2017-09-30T00:42:08.687Z,7.30
2017-09-30T00:42:13.720Z,7.15
2017-09-30T00:42:23.976Z,7.07
2017-09-30T00:42:36.550Z,7.10
2017-09-30T00:42:42.151Z,7.13
2017-09-30T00:42:46.416Z,7.23
2017-09-30T00:43:07.689Z,7.30
2017-09-30T00:43:23.438Z,7.80
2017-09-30T00:43:27.685Z,8.13
2017-09-30T00:43:31.939Z,8.10
2017-09-30T00:43:36.947Z,8.10
2017-09-30T00:43:41.232Z,8.20
2017-09-30T00:43:45.480Z,8.30
2017-09-30T00:43:49.715Z,8.30
2017-09-30T00:43:53.992Z,8.15
2017-09-30T00:43:58.259Z,8.13
2017-09-30T00:44:03.253Z,8.20
2017-09-30T00:44:07.526Z,8.13
2017-09-30T00:44:11.758Z,8.20
2017-09-30T00:44:16.016Z,8.20
2017-09-30T00:44:30.702Z,7.90
2017-09-30T00:44:34.942Z,7.90
2017-09-30T00:44:39.176Z,7.90
2017-09-30T00:44:43.423Z,7.90
2017-09-30T00:44:48.423Z,7.90
2017-09-30T00:44:52.648Z,8.07
2017-09-30T00:44:56.888Z,8.30
2017-09-30T00:45:01.150Z,8.30
2017-09-30T00:45:05.389Z,8.30
2017-09-30T00:45:09.635Z,8.30
2017-09-30T00:45:14.651Z,8.27
2017-09-30T00:45:19.679Z,8.37
2017-09-30T00:45:24.708Z,8.40
2017-09-30T00:45:28.954Z,8.40
2017-09-30T00:45:33.187Z,8.20
2017-09-30T00:45:54.107Z,8.20
2017-09-30T00:46:03.298Z,7.83
2017-09-30T00:46:08.311Z,7.53
2017-09-30T00:46:13.321Z,7.43
2017-09-30T00:46:17.562Z,7.35
2017-09-30T00:46:21.809Z,7.30
2017-09-30T00:46:26.086Z,7.35
2017-09-30T00:46:30.327Z,7.50
2017-09-30T00:46:34.573Z,7.43
2017-09-30T00:46:38.810Z,7.50
2017-09-30T00:46:43.055Z,7.60
2017-09-30T00:46:47.301Z,7.60
2017-09-30T00:46:51.557Z,7.40
2017-09-30T00:46:55.789Z,7.45
2017-09-30T00:47:00.068Z,7.40
2017-09-30T00:47:04.303Z,7.50
2017-09-30T00:47:08.567Z,7.40
2017-09-30T00:47:12.790Z,7.50
2017-09-30T00:47:17.031Z,7.60
2017-09-30T00:47:21.276Z,7.70
2017-09-30T00:47:25.530Z,7.67
2017-09-30T00:47:30.545Z,7.60
2017-09-30T00:47:35.600Z,7.60
2017-09-30T00:47:39.864Z,7.50
2017-09-30T00:47:44.861Z,7.50
2017-09-30T00:47:51.193Z,7.50
2017-09-30T00:48:01.357Z,7.74
2017-09-30T00:48:08.277Z,7.90
2017-09-30T00:48:12.606Z,7.96
2017-09-30T00:48:16.878Z,7.90
2017-09-30T00:48:21.886Z,7.90
2017-09-30T00:48:27.342Z,7.90
2017-09-30T00:48:31.572Z,8.00
2017-09-30T00:48:35.948Z,8.00
2017-09-30T00:48:40.249Z,8.07
2017-09-30T00:48:44.503Z,8.15
2017-09-30T00:48:49.517Z,8.20
2017-09-30T00:48:53.754Z,8.17
2017-09-30T00:48:58.005Z,8.10
2017-09-30T00:49:03.047Z,8.10
2017-09-30T00:49:07.294Z,8.10
2017-09-30T00:49:11.530Z,8.10
2017-09-30T00:49:16.549Z,8.05
2017-09-30T00:49:21.586Z,8.30
2017-09-30T00:49:26.574Z,8.43
2017-09-30T00:49:31.602Z,8.47
2017-09-30T00:49:35.956Z,8.40
2017-09-30T00:49:41.152Z,8.47
2017-09-30T00:49:46.235Z,8.43
2017-09-30T00:49:50.636Z,8.30
2017-09-30T00:49:56.040Z,8.30
2017-09-30T00:50:00.396Z,8.67
2017-09-30T00:50:04.712Z,8.65
2017-09-30T00:50:08.986Z,8.57
2017-09-30T00:50:14.002Z,8.55
2017-09-30T00:50:19.018Z,8.30
2017-09-30T00:50:24.017Z,8.13
2017-09-30T00:50:28.288Z,7.90
2017-09-30T00:50:32.557Z,7.95
2017-09-30T00:50:36.843Z,8.00
2017-09-30T00:50:41.315Z,7.90
2017-09-30T00:50:45.596Z,7.90
2017-09-30T00:50:49.858Z,7.87
2017-09-30T00:50:54.084Z,7.85
2017-09-30T00:50:58.449Z,7.45
2017-09-30T00:51:02.703Z,7.40
2017-09-30T00:51:06.961Z,7.45
2017-09-30T00:51:11.190Z,7.50
2017-09-30T00:51:15.447Z,7.50
2017-09-30T00:51:20.473Z,7.53
2017-09-30T00:51:25.545Z,7.50
2017-09-30T00:51:29.778Z,7.50
2017-09-30T00:51:34.169Z,7.50
2017-09-30T00:51:38.390Z,7.30
2017-09-30T00:51:43.386Z,7.20
2017-09-30T00:51:47.786Z,7.20
2017-09-30T00:51:52.062Z,7.40
2017-09-30T00:51:56.307Z,7.50
2017-09-30T00:52:01.308Z,7.50
2017-09-30T00:52:06.353Z,7.50
2017-09-30T00:52:10.655Z,7.40
2017-09-30T00:52:14.956Z,7.40
2017-09-30T00:52:19.208Z,7.30
2017-09-30T00:52:24.228Z,7.40
2017-09-30T00:52:28.468Z,7.40
2017-09-30T00:52:32.743Z,7.40
2017-09-30T00:52:36.971Z,7.50
2017-09-30T00:52:41.978Z,7.70
2017-09-30T00:52:46.244Z,7.72
2017-09-30T00:52:50.571Z,7.80
2017-09-30T00:52:54.820Z,7.70
2017-09-30T00:52:59.046Z,7.80
2017-09-30T00:53:03.354Z,7.80
2017-09-30T00:53:07.604Z,7.90
2017-09-30T00:53:11.859Z,8.00
2017-09-30T00:53:16.105Z,8.10
2017-09-30T00:53:20.351Z,8.10
2017-09-30T00:53:24.589Z,8.20
2017-09-30T00:53:28.836Z,8.20
2017-09-30T00:53:33.094Z,8.30
2017-09-30T00:53:38.139Z,8.30
2017-09-30T00:53:42.391Z,8.33
2017-09-30T00:53:46.616Z,8.40
2017-09-30T00:53:50.850Z,8.30
2017-09-30T00:53:55.140Z,8.37
2017-09-30T00:53:59.381Z,8.35
2017-09-30T00:54:03.593Z,8.50
2017-09-30T00:54:08.589Z,8.40
2017-09-30T00:54:12.852Z,8.37
2017-09-30T00:54:17.106Z,8.30
2017-09-30T00:54:21.345Z,8.30
2017-09-30T00:54:25.582Z,8.30
2017-09-30T00:54:29.804Z,8.25
2017-09-30T00:54:34.836Z,8.10
2017-09-30T00:54:39.863Z,8.17
2017-09-30T00:54:45.125Z,8.07
2017-09-30T00:54:49.349Z,8.00
2017-09-30T00:54:54.395Z,7.80
2017-09-30T00:54:59.421Z,7.80
2017-09-30T00:55:04.426Z,7.90
2017-09-30T00:55:08.683Z,7.90
2017-09-30T00:55:12.916Z,7.90
2017-09-30T00:55:17.160Z,8.05
2017-09-30T00:55:21.385Z,8.00
2017-09-30T00:55:25.657Z,8.10
2017-09-30T00:55:29.911Z,8.13
2017-09-30T00:55:34.167Z,8.20
2017-09-30T00:55:38.412Z,8.10
2017-09-30T00:55:42.654Z,8.13
2017-09-30T00:55:46.903Z,8.00
2017-09-30T00:55:51.166Z,8.00
2017-09-30T00:55:55.478Z,8.00
2017-09-30T00:55:59.727Z,8.07
2017-09-30T00:56:04.763Z,8.00
2017-09-30T00:56:09.013Z,7.93
2017-09-30T00:56:13.277Z,8.00
2017-09-30T00:56:17.523Z,7.80
2017-09-30T00:56:21.780Z,7.75
2017-09-30T00:56:26.026Z,7.60
2017-09-30T00:56:30.263Z,7.75
2017-09-30T00:56:34.537Z,7.80
2017-09-30T00:56:39.587Z,7.80
2017-09-30T00:56:43.822Z,7.70
2017-09-30T00:56:48.082Z,7.80
2017-09-30T00:56:53.095Z,7.70
2017-09-30T00:56:58.104Z,7.70
2017-09-30T00:57:03.127Z,7.50
2017-09-30T00:57:08.165Z,7.50
2017-09-30T00:57:12.414Z,7.43
2017-09-30T00:57:16.665Z,7.40
2017-09-30T00:57:20.901Z,7.45
2017-09-30T00:57:25.130Z,7.60
2017-09-30T00:57:30.143Z,7.50
2017-09-30T00:57:35.158Z,7.37
2017-09-30T00:57:39.414Z,7.30
2017-09-30T00:57:43.649Z,7.40
2017-09-30T00:57:47.949Z,7.50
2017-09-30T00:57:52.202Z,7.57
2017-09-30T00:57:56.551Z,7.50
2017-09-30T00:58:00.807Z,7.50
2017-09-30T00:58:05.055Z,7.50
2017-09-30T00:58:09.374Z,7.50
2017-09-30T00:58:13.627Z,7.60
2017-09-30T00:58:17.895Z,7.70
2017-09-30T00:58:22.881Z,7.63
2017-09-30T00:58:27.894Z,7.53
2017-09-30T00:58:32.915Z,7.53
2017-09-30T00:58:37.203Z,7.60
2017-09-30T00:58:41.481Z,7.55
2017-09-30T00:58:45.756Z,7.45
2017-09-30T00:58:50.012Z,7.40
2017-09-30T00:58:54.248Z,7.50
2017-09-30T00:58:58.511Z,7.60
2017-09-30T00:59:02.762Z,7.55
2017-09-30T00:59:07.024Z,7.60
2017-09-30T00:59:11.325Z,7.60
2017-09-30T00:59:16.330Z,7.60
2017-09-30T00:59:20.600Z,7.60
2017-09-30T00:59:24.871Z,7.60
2017-09-30T00:59:29.113Z,7.65
2017-09-30T00:59:33.382Z,7.60
2017-09-30T00:59:37.615Z,7.65
2017-09-30T00:59:41.846Z,7.60
2017-09-30T00:59:46.859Z,7.60
2017-09-30T00:59:51.115Z,7.50
2017-09-30T00:59:55.384Z,7.40
2017-09-30T00:59:59.630Z,7.30
2017-09-30T01:00:03.882Z,7.30
2017-09-30T01:00:08.145Z,7.15
2017-09-30T01:00:12.420Z,7.10
2017-09-30T01:00:16.650Z,7.10
2017-09-30T01:00:20.894Z,7.10
2017-09-30T01:00:26.067Z,7.15
2017-09-30T01:00:30.319Z,7.37
2017-09-30T01:00:34.554Z,7.40
2017-09-30T01:00:38.840Z,7.47
2017-09-30T01:00:43.098Z,7.60
2017-09-30T01:00:48.160Z,7.60
2017-09-30T01:00:52.423Z,7.70
2017-09-30T01:00:57.444Z,7.77